createdAt,value
2023-01-25T00:00:25.817Z,7.72
2023-01-25T00:01:59.004Z,7.20
2023-01-25T00:03:32.470Z,19.77
2023-01-25T00:05:06.594Z,13.00
2023-01-25T00:06:40.096Z,5.70
2023-01-25T00:08:14.827Z,5.80
2023-01-25T00:09:48.034Z,7.80
2023-01-25T00:11:21.370Z,5.70
2023-01-25T00:12:54.629Z,5.60
2023-01-25T00:14:28.507Z,5.45
2023-01-25T00:16:05.244Z,5.72
2023-01-25T00:17:38.697Z,6.57
2023-01-25T00:19:13.078Z,5.28
2023-01-25T00:20:46.142Z,5.15
2023-01-25T00:22:19.383Z,5.22
2023-01-25T00:23:54.364Z,5.88
2023-01-25T00:25:27.681Z,6.05
2023-01-25T00:27:00.895Z,5.57
2023-01-25T00:28:34.169Z,6.05
2023-01-25T00:30:08.321Z,6.97
2023-01-25T00:31:55.505Z,5.85
2023-01-25T00:33:41.488Z,8.00
2023-01-25T00:35:15.086Z,7.70
2023-01-25T00:36:50.687Z,6.35
2023-01-25T00:38:30.248Z,6.07
2023-01-25T00:40:05.604Z,7.22
2023-01-25T00:41:38.976Z,6.22
2023-01-25T00:43:12.312Z,6.18
2023-01-25T00:44:45.618Z,5.70
2023-01-25T00:46:19.664Z,5.75
2023-01-25T00:47:56.004Z,5.70
2023-01-25T00:49:31.018Z,6.72
2023-01-25T00:51:04.280Z,6.07
2023-01-25T00:52:37.736Z,7.05
2023-01-25T00:54:10.240Z,6.32
2023-01-25T00:55:52.981Z,7.03
2023-01-25T00:57:26.211Z,6.22
2023-01-25T00:58:58.559Z,6.72
2023-01-25T01:00:32.056Z,5.85
2023-01-25T01:02:04.607Z,6.03
2023-01-25T01:03:37.830Z,6.35
2023-01-25T01:05:11.739Z,5.95
2023-01-25T01:06:44.471Z,5.75
2023-01-25T01:08:17.558Z,6.05
2023-01-25T01:09:51.486Z,5.97
2023-01-25T01:11:25.251Z,6.18
2023-01-25T01:12:58.727Z,6.78
2023-01-25T01:14:31.886Z,5.97
2023-01-25T01:16:08.386Z,6.05
2023-01-25T01:17:41.846Z,6.47
2023-01-25T01:19:14.243Z,6.63
2023-01-25T01:20:50.427Z,6.13
2023-01-25T01:22:23.582Z,6.07
2023-01-25T01:23:56.180Z,6.43
2023-01-25T01:25:29.687Z,5.90
2023-01-25T01:27:04.192Z,6.53
2023-01-25T01:28:39.455Z,6.60
2023-01-25T01:30:13.764Z,6.43
2023-01-25T01:31:51.330Z,5.75
2023-01-25T01:33:33.975Z,5.97
2023-01-25T01:35:09.547Z,5.10
2023-01-25T01:36:43.864Z,6.15
2023-01-25T01:38:17.095Z,5.00
2023-01-25T01:39:50.168Z,5.95
2023-01-25T01:41:23.746Z,5.90
2023-01-25T01:42:58.963Z,5.13
2023-01-25T01:44:46.845Z,5.90
2023-01-25T01:46:26.321Z,6.05
2023-01-25T01:48:00.320Z,5.72
2023-01-25T01:49:34.391Z,5.53
2023-01-25T01:51:25.578Z,5.13
2023-01-25T01:52:58.887Z,5.40
2023-01-25T01:54:36.412Z,5.47
2023-01-25T01:56:17.421Z,5.75
2023-01-25T01:57:58.041Z,6.35
2023-01-25T01:59:39.246Z,5.82
2023-01-25T02:01:11.902Z,4.72
2023-01-25T02:02:45.205Z,4.68
2023-01-25T02:04:21.964Z,5.25
2023-01-25T02:06:00.829Z,5.90
2023-01-25T02:07:36.912Z,5.03
2023-01-25T02:09:10.083Z,5.93
2023-01-25T02:10:43.221Z,5.72
2023-01-25T02:12:17.792Z,5.50
2023-01-25T02:13:51.901Z,5.53
2023-01-25T02:15:34.813Z,6.65
2023-01-25T02:17:08.536Z,7.63
2023-01-25T02:18:41.169Z,6.03
2023-01-25T02:20:24.630Z,6.13
2023-01-25T02:22:00.219Z,5.78
2023-01-25T02:23:41.165Z,6.70
2023-01-25T02:25:18.966Z,6.03
2023-01-25T02:26:52.288Z,5.97
2023-01-25T02:28:28.937Z,5.78
2023-01-25T02:30:01.483Z,5.78
2023-01-25T02:31:35.200Z,5.75
2023-01-25T02:33:08.417Z,5.38
2023-01-25T02:34:42.046Z,6.53
2023-01-25T02:36:22.519Z,6.53
2023-01-25T02:37:55.884Z,7.00
2023-01-25T02:39:29.516Z,6.68
2023-01-25T02:41:11.712Z,6.82
2023-01-25T02:42:48.357Z,6.25
2023-01-25T02:44:26.310Z,6.72
2023-01-25T02:46:03.906Z,6.68
2023-01-25T02:47:37.107Z,6.20
2023-01-25T02:49:11.633Z,7.55
2023-01-25T02:50:45.327Z,9.00
2023-01-25T02:52:18.805Z,7.97
2023-01-25T02:53:52.781Z,8.43
2023-01-25T02:55:25.931Z,8.00
2023-01-25T02:57:00.497Z,6.95
2023-01-25T02:58:39.530Z,6.35
2023-01-25T03:00:13.987Z,6.40
2023-01-25T03:01:47.318Z,6.93
2023-01-25T03:03:20.936Z,5.60
2023-01-25T03:04:54.429Z,5.00
2023-01-25T03:06:27.634Z,5.43
2023-01-25T03:08:01.033Z,6.65
2023-01-25T03:09:34.595Z,5.57
2023-01-25T03:11:08.944Z,6.82
2023-01-25T03:12:44.469Z,5.68
2023-01-25T03:14:17.968Z,6.75
2023-01-25T03:15:50.158Z,6.32
2023-01-25T03:17:25.573Z,6.78
2023-01-25T03:18:58.844Z,5.57
2023-01-25T03:20:32.174Z,5.63
2023-01-25T03:22:06.855Z,7.60
2023-01-25T03:23:40.011Z,7.10
2023-01-25T03:25:14.548Z,6.65
2023-01-25T03:27:14.396Z,6.20
2023-01-25T03:28:56.333Z,6.13
2023-01-25T03:30:29.630Z,6.50
2023-01-25T03:32:02.259Z,6.47
2023-01-25T03:33:36.424Z,5.85
2023-01-25T03:35:09.697Z,6.38
2023-01-25T03:36:43.054Z,6.13
2023-01-25T03:38:16.327Z,6.60
2023-01-25T03:39:50.701Z,6.25
2023-01-25T03:41:25.970Z,10.00
2023-01-25T03:42:59.139Z,7.28
2023-01-25T03:44:33.720Z,10.45
2023-01-25T03:46:07.142Z,7.78
2023-01-25T03:47:41.025Z,7.05
2023-01-25T03:49:15.413Z,7.00
2023-01-25T03:50:52.463Z,6.10
2023-01-25T03:52:40.751Z,5.90
2023-01-25T03:54:22.506Z,5.93
2023-01-25T03:55:56.053Z,6.88
2023-01-25T03:57:29.215Z,6.88
2023-01-25T03:59:12.489Z,8.10
2023-01-25T04:00:47.782Z,7.03
2023-01-25T04:02:21.026Z,8.02
2023-01-25T04:03:53.300Z,8.13
2023-01-25T04:05:26.645Z,8.15
2023-01-25T04:07:00.143Z,6.20
2023-01-25T04:08:33.768Z,6.07
2023-01-25T04:10:10.840Z,6.57
2023-01-25T04:11:50.834Z,8.38
2023-01-25T04:13:26.045Z,7.03
2023-01-25T04:14:59.243Z,7.88
2023-01-25T04:16:36.130Z,7.85
2023-01-25T04:18:35.693Z,7.10
2023-01-25T04:20:10.361Z,7.07
2023-01-25T04:21:46.529Z,7.32
2023-01-25T04:23:19.691Z,8.02
2023-01-25T04:24:53.128Z,7.22
2023-01-25T04:26:26.919Z,9.30
2023-01-25T04:28:06.527Z,10.35
2023-01-25T04:29:41.773Z,9.02
2023-01-25T04:31:20.664Z,8.25
2023-01-25T04:32:56.903Z,8.95
2023-01-25T04:34:35.205Z,6.32
2023-01-25T04:36:09.484Z,27.10
2023-01-25T04:37:43.041Z,17.00
2023-01-25T04:39:16.350Z,13.57
2023-01-25T04:40:48.496Z,11.65
2023-01-25T04:42:21.919Z,10.25
2023-01-25T04:44:00.073Z,11.98
2023-01-25T04:45:35.921Z,7.47
2023-01-25T04:47:12.807Z,7.70
2023-01-25T04:48:47.636Z,8.13
2023-01-25T04:50:22.518Z,8.25
2023-01-25T04:51:54.797Z,12.60
2023-01-25T04:53:28.469Z,11.02
2023-01-25T04:55:06.597Z,10.15
2023-01-25T04:56:45.723Z,10.25
2023-01-25T04:58:19.584Z,11.70
2023-01-25T04:59:52.852Z,10.43
2023-01-25T05:01:28.299Z,11.82
2023-01-25T05:03:01.761Z,9.88
2023-01-25T05:04:36.262Z,8.95
2023-01-25T05:06:10.285Z,13.38
2023-01-25T05:07:42.710Z,10.77
2023-01-25T05:09:17.415Z,10.02
2023-01-25T05:10:51.539Z,11.20
2023-01-25T05:12:44.939Z,10.13
2023-01-25T05:14:18.754Z,10.70
2023-01-25T05:15:52.542Z,8.85
2023-01-25T05:17:25.802Z,9.68
2023-01-25T05:18:59.633Z,9.00
2023-01-25T05:20:47.123Z,8.88
2023-01-25T05:22:21.075Z,11.85
2023-01-25T05:23:57.982Z,12.52
2023-01-25T05:25:48.992Z,10.23
2023-01-25T05:27:27.820Z,9.43
2023-01-25T05:29:00.000Z,7.90
2023-01-25T05:30:42.489Z,12.35
2023-01-25T05:32:27.267Z,9.40
2023-01-25T05:33:59.536Z,12.55
2023-01-25T05:35:33.414Z,11.60
2023-01-25T05:37:08.990Z,6.78
2023-01-25T05:38:46.292Z,9.30
2023-01-25T05:40:20.509Z,13.15
2023-01-25T05:41:55.705Z,9.27
2023-01-25T05:43:29.483Z,8.23
2023-01-25T05:45:03.598Z,10.05
2023-01-25T05:46:36.837Z,10.38
2023-01-25T05:48:10.111Z,11.77
2023-01-25T05:49:43.424Z,12.05
2023-01-25T05:51:21.780Z,11.88
2023-01-25T05:52:56.428Z,17.95
2023-01-25T05:54:30.130Z,15.73
2023-01-25T05:56:10.359Z,20.02
2023-01-25T05:57:44.116Z,17.42
2023-01-25T05:59:18.124Z,12.57
2023-01-25T06:00:51.675Z,11.48
2023-01-25T06:02:39.234Z,11.10
2023-01-25T06:04:15.469Z,14.13
2023-01-25T06:05:48.686Z,14.15
2023-01-25T06:07:22.365Z,16.08
2023-01-25T06:08:58.475Z,13.13
2023-01-25T06:10:32.164Z,11.98
2023-01-25T06:12:06.870Z,13.07
2023-01-25T06:13:40.176Z,11.30
2023-01-25T06:15:13.348Z,11.38
2023-01-25T06:16:47.330Z,10.05
2023-01-25T06:18:52.457Z,9.10
2023-01-25T06:20:39.028Z,9.68
2023-01-25T06:22:12.336Z,10.80
2023-01-25T06:23:45.482Z,17.88
2023-01-25T06:25:20.234Z,12.23
2023-01-25T06:26:53.353Z,13.05
2023-01-25T06:28:26.653Z,17.48
2023-01-25T06:29:59.728Z,9.88
2023-01-25T06:31:33.191Z,10.43
2023-01-25T06:33:05.356Z,12.32
2023-01-25T06:34:38.743Z,15.73
2023-01-25T06:36:17.342Z,15.57
2023-01-25T06:37:50.753Z,11.32
2023-01-25T06:39:24.160Z,8.20
2023-01-25T06:41:02.369Z,8.55
2023-01-25T06:42:35.561Z,10.68
2023-01-25T06:44:09.747Z,9.80
2023-01-25T06:45:42.907Z,7.20
2023-01-25T06:47:17.021Z,7.85
2023-01-25T06:48:50.352Z,5.63
2023-01-25T06:50:23.648Z,7.28
2023-01-25T06:51:56.788Z,7.45
2023-01-25T06:53:31.311Z,5.47
2023-01-25T06:55:04.760Z,5.43
2023-01-25T06:56:39.520Z,6.78
2023-01-25T06:58:12.675Z,7.70
2023-01-25T06:59:46.104Z,7.40
2023-01-25T07:01:21.423Z,7.03
2023-01-25T07:02:54.683Z,7.20
2023-01-25T07:04:27.875Z,5.90
2023-01-25T07:06:02.181Z,6.85
2023-01-25T07:07:35.765Z,7.63
2023-01-25T07:09:10.788Z,5.28
2023-01-25T07:10:43.926Z,5.40
2023-01-25T07:12:19.733Z,5.88
2023-01-25T07:13:52.895Z,6.03
2023-01-25T07:15:26.336Z,5.78
2023-01-25T07:17:02.866Z,4.40
2023-01-25T07:18:38.397Z,4.00
2023-01-25T07:20:12.570Z,4.75
2023-01-25T07:21:46.838Z,5.05
2023-01-25T07:23:20.969Z,3.95
2023-01-25T07:24:54.149Z,6.43
2023-01-25T07:26:27.808Z,3.72
2023-01-25T07:28:02.377Z,4.50
2023-01-25T07:29:35.613Z,4.10
2023-01-25T07:31:09.416Z,4.95
2023-01-25T07:32:42.508Z,3.70
2023-01-25T07:34:15.981Z,7.95
2023-01-25T07:35:51.092Z,4.20
2023-01-25T07:37:23.474Z,14.35
2023-01-25T07:38:57.498Z,6.60
2023-01-25T07:40:30.814Z,15.50
2023-01-25T07:42:03.999Z,6.53
2023-01-25T07:43:40.744Z,7.28
2023-01-25T07:45:16.315Z,5.65
2023-01-25T07:46:49.515Z,8.45
2023-01-25T07:48:22.695Z,6.78
2023-01-25T07:49:56.308Z,8.35
2023-01-25T07:51:31.091Z,9.00
2023-01-25T07:53:04.441Z,6.82
2023-01-25T07:54:37.610Z,5.20
2023-01-25T07:56:13.751Z,6.13
2023-01-25T07:57:47.248Z,7.43
2023-01-25T07:59:21.956Z,3.80
2023-01-25T08:00:55.142Z,8.27
2023-01-25T08:02:28.323Z,10.82
2023-01-25T08:04:02.144Z,5.55
2023-01-25T08:05:35.546Z,7.63
2023-01-25T08:07:08.686Z,5.63
2023-01-25T08:08:44.305Z,8.00
2023-01-25T08:10:17.602Z,5.78
2023-01-25T08:11:50.899Z,8.48
2023-01-25T08:13:24.100Z,9.90
2023-01-25T08:14:58.754Z,10.35
2023-01-25T08:16:32.839Z,5.65
2023-01-25T08:18:06.189Z,7.13
2023-01-25T08:19:39.514Z,3.67
2023-01-25T08:21:13.257Z,4.20
2023-01-25T08:22:46.439Z,6.03
2023-01-25T08:24:20.922Z,6.60
2023-01-25T08:25:54.317Z,5.10
2023-01-25T08:27:28.899Z,4.43
2023-01-25T08:29:01.987Z,3.53
2023-01-25T08:30:36.664Z,4.40
2023-01-25T08:32:12.431Z,4.60
2023-01-25T08:33:46.954Z,3.95
2023-01-25T08:35:20.166Z,4.95
2023-01-25T08:36:53.495Z,4.97
2023-01-25T08:38:26.758Z,3.63
2023-01-25T08:40:00.051Z,2.45
2023-01-25T08:41:34.920Z,3.85
2023-01-25T08:43:08.323Z,3.22
2023-01-25T08:44:41.480Z,2.88
2023-01-25T08:46:17.866Z,2.38
2023-01-25T08:47:51.029Z,4.10
2023-01-25T08:49:24.486Z,3.80
2023-01-25T08:50:57.742Z,3.53
2023-01-25T08:52:31.121Z,4.03
2023-01-25T08:54:05.005Z,3.80
2023-01-25T08:55:38.318Z,2.85
2023-01-25T08:57:11.543Z,3.40
2023-01-25T08:58:46.426Z,3.28
2023-01-25T09:00:21.108Z,3.80
2023-01-25T09:01:55.781Z,4.47
2023-01-25T09:03:29.730Z,6.85
2023-01-25T09:05:03.022Z,3.83
2023-01-25T09:06:36.126Z,4.10
2023-01-25T09:08:11.658Z,4.00
2023-01-25T09:09:44.821Z,5.25
2023-01-25T09:11:19.847Z,6.40
2023-01-25T09:12:52.935Z,6.55
2023-01-25T09:14:26.445Z,9.43
2023-01-25T09:16:03.908Z,6.10
2023-01-25T09:17:39.320Z,3.70
2023-01-25T09:19:12.489Z,3.80
2023-01-25T09:20:46.007Z,3.13
2023-01-25T09:22:19.183Z,4.35
2023-01-25T09:24:09.296Z,3.22
2023-01-25T09:25:42.725Z,2.70
2023-01-25T09:27:16.081Z,3.35
2023-01-25T09:28:50.810Z,2.78
2023-01-25T09:30:33.755Z,3.20
2023-01-25T09:32:11.978Z,3.75
2023-01-25T09:34:02.363Z,3.53
2023-01-25T09:35:35.986Z,3.60
2023-01-25T09:37:09.138Z,3.25
2023-01-25T09:38:42.219Z,4.75
2023-01-25T09:40:21.816Z,5.65
2023-01-25T09:42:45.413Z,3.78
2023-01-25T09:44:37.264Z,2.55
2023-01-25T09:46:20.131Z,3.95
2023-01-25T09:48:00.568Z,5.40
2023-01-25T09:49:51.540Z,7.35
2023-01-25T09:51:31.185Z,7.30
2023-01-25T09:53:17.616Z,4.32
2023-01-25T09:54:51.181Z,2.65
2023-01-25T09:56:26.838Z,4.25
2023-01-25T09:58:02.858Z,6.63
2023-01-25T09:59:36.360Z,7.43
2023-01-25T10:01:38.558Z,5.15
2023-01-25T10:03:21.592Z,5.95
2023-01-25T10:05:03.541Z,6.22
2023-01-25T10:06:46.066Z,5.72
2023-01-25T10:08:30.080Z,2.80
2023-01-25T10:10:07.690Z,1.65
2023-01-25T10:11:42.562Z,2.53
2023-01-25T10:13:18.766Z,1.50
2023-01-25T10:14:52.796Z,2.20
2023-01-25T10:16:32.824Z,4.45
2023-01-25T10:18:20.304Z,2.88
2023-01-25T10:20:09.044Z,2.38
2023-01-25T10:21:45.630Z,2.75
2023-01-25T10:24:04.946Z,2.30
2023-01-25T10:25:45.246Z,7.88
2023-01-25T10:27:29.894Z,4.70
2023-01-25T10:29:09.512Z,3.65
2023-01-25T10:30:50.905Z,4.70
2023-01-25T10:32:32.363Z,3.22
2023-01-25T10:34:18.907Z,3.53
2023-01-25T10:35:53.750Z,4.32
2023-01-25T10:37:29.500Z,5.30
2023-01-25T10:39:07.642Z,3.20
2023-01-25T10:40:44.422Z,2.78
2023-01-25T10:42:18.106Z,4.07
2023-01-25T10:44:11.510Z,6.75
2023-01-25T10:45:44.853Z,5.22
2023-01-25T10:47:24.108Z,8.57
2023-01-25T10:48:57.700Z,3.25
2023-01-25T10:50:46.717Z,1.92
2023-01-25T10:52:23.678Z,3.10
2023-01-25T10:54:02.535Z,2.35
2023-01-25T10:55:35.786Z,1.95
2023-01-25T10:57:10.344Z,2.38
2023-01-25T10:58:46.311Z,3.97
2023-01-25T11:00:30.185Z,5.57
2023-01-25T11:02:36.229Z,5.25
2023-01-25T11:04:31.287Z,4.20
2023-01-25T11:06:08.406Z,1.80
2023-01-25T11:07:43.235Z,5.43
2023-01-25T11:09:32.986Z,3.60
2023-01-25T11:11:25.539Z,4.30
2023-01-25T11:13:26.873Z,3.25
2023-01-25T11:15:26.527Z,4.13
2023-01-25T11:17:02.485Z,11.55
2023-01-25T11:18:36.177Z,13.18
2023-01-25T11:20:19.656Z,4.95
2023-01-25T11:21:53.871Z,3.28
2023-01-25T11:23:28.466Z,7.75
2023-01-25T11:25:26.654Z,4.10
2023-01-25T11:27:19.854Z,3.45
2023-01-25T11:29:08.798Z,3.22
2023-01-25T11:30:42.326Z,3.50
2023-01-25T11:32:21.585Z,2.63
2023-01-25T11:33:54.856Z,6.00
2023-01-25T11:35:34.149Z,3.28
2023-01-25T11:37:33.323Z,3.63
2023-01-25T11:39:27.389Z,3.97
2023-01-25T11:41:10.265Z,3.00
2023-01-25T11:42:58.655Z,3.80
2023-01-25T11:45:12.142Z,4.45
2023-01-25T11:46:56.147Z,3.63
2023-01-25T11:48:50.090Z,3.30
2023-01-25T11:50:31.788Z,6.43
2023-01-25T11:52:16.931Z,2.95
2023-01-25T11:54:10.721Z,2.58
2023-01-25T11:55:53.348Z,2.88
2023-01-25T11:57:43.822Z,1.30
2023-01-25T11:59:31.780Z,2.60
2023-01-25T12:01:14.956Z,3.78
2023-01-25T12:03:24.503Z,2.42
2023-01-25T12:05:27.885Z,2.15
2023-01-25T12:07:04.688Z,4.40
2023-01-25T12:09:01.696Z,3.17
2023-01-25T12:10:44.310Z,2.42
2023-01-25T12:12:31.865Z,3.90
2023-01-25T12:14:13.578Z,2.72
2023-01-25T12:16:16.599Z,2.83
2023-01-25T12:18:09.203Z,3.17
2023-01-25T12:19:59.517Z,2.67
2023-01-25T12:21:49.497Z,2.90
2023-01-25T12:23:35.734Z,3.35
2023-01-25T12:25:22.470Z,2.47
2023-01-25T12:27:01.981Z,4.63
2023-01-25T12:28:43.532Z,2.92
2023-01-25T12:30:23.953Z,2.05
2023-01-25T12:32:08.024Z,3.03
2023-01-25T12:33:47.364Z,2.80
2023-01-25T12:35:30.835Z,3.10
2023-01-25T12:37:13.917Z,6.32
2023-01-25T12:38:53.907Z,5.07
2023-01-25T12:40:41.752Z,2.95
2023-01-25T12:42:21.572Z,4.03
2023-01-25T12:43:59.391Z,4.45
2023-01-25T12:45:37.052Z,5.78
2023-01-25T12:47:17.217Z,4.25
2023-01-25T12:48:54.590Z,5.30
2023-01-25T12:50:33.293Z,6.03
2023-01-25T12:52:16.817Z,5.97
2023-01-25T12:53:51.945Z,5.40
2023-01-25T12:55:25.765Z,7.97
2023-01-25T12:57:09.954Z,12.32
2023-01-25T12:58:48.901Z,7.03
2023-01-25T13:00:28.590Z,3.10
2023-01-25T13:02:14.644Z,2.47
2023-01-25T13:04:10.518Z,4.03
2023-01-25T13:05:49.924Z,4.43
2023-01-25T13:07:34.714Z,5.60
2023-01-25T13:09:17.015Z,6.25
2023-01-25T13:10:54.208Z,5.82
2023-01-25T13:12:28.259Z,5.38
2023-01-25T13:14:28.418Z,3.78
2023-01-25T13:16:37.973Z,5.05
2023-01-25T13:18:41.846Z,5.05
2023-01-25T13:20:44.570Z,4.10
2023-01-25T13:22:59.051Z,3.70
2023-01-25T13:24:33.624Z,3.80
2023-01-25T13:26:48.494Z,4.57
2023-01-25T13:28:43.771Z,3.25
2023-01-25T13:30:32.165Z,4.10
2023-01-25T13:32:11.957Z,3.83
2023-01-25T13:33:45.279Z,6.80
2023-01-25T13:35:36.800Z,2.88
2023-01-25T13:37:19.173Z,3.85
2023-01-25T13:38:52.415Z,6.78
2023-01-25T13:40:32.399Z,4.32
2023-01-25T13:42:20.571Z,3.80
2023-01-25T13:44:14.674Z,3.97
2023-01-25T13:45:51.447Z,3.80
2023-01-25T13:47:29.476Z,4.80
2023-01-25T13:49:10.101Z,2.90
2023-01-25T13:50:48.542Z,4.45
2023-01-25T13:52:24.055Z,2.97
2023-01-25T13:53:59.195Z,5.47
2023-01-25T13:55:40.620Z,5.03
2023-01-25T13:57:15.555Z,3.17
2023-01-25T13:58:48.899Z,3.33
2023-01-25T14:00:23.090Z,4.10
2023-01-25T14:01:57.317Z,6.88
2023-01-25T14:03:36.427Z,5.85
2023-01-25T14:05:20.070Z,8.10
2023-01-25T14:06:59.011Z,8.18
2023-01-25T14:08:33.190Z,4.25
2023-01-25T14:10:11.807Z,5.70
2023-01-25T14:11:47.595Z,6.03
2023-01-25T14:13:21.080Z,6.68
2023-01-25T14:14:54.268Z,6.70
2023-01-25T14:16:30.328Z,5.97
2023-01-25T14:18:14.056Z,4.20
2023-01-25T14:19:50.836Z,6.35
2023-01-25T14:21:24.563Z,4.78
2023-01-25T14:22:57.815Z,5.25
2023-01-25T14:24:30.977Z,7.43
2023-01-25T14:26:04.503Z,6.32
2023-01-25T14:27:42.784Z,6.25
2023-01-25T14:29:35.685Z,4.85
2023-01-25T14:31:22.330Z,4.88
2023-01-25T14:32:58.141Z,4.38
2023-01-25T14:34:31.606Z,4.43
2023-01-25T14:36:22.833Z,5.18
2023-01-25T14:37:57.228Z,6.50
2023-01-25T14:39:31.126Z,8.80
2023-01-25T14:41:14.339Z,17.05
2023-01-25T14:42:47.579Z,14.98
2023-01-25T14:44:21.328Z,11.40
2023-01-25T14:45:54.563Z,5.30
2023-01-25T14:47:32.119Z,12.73
2023-01-25T14:49:25.401Z,10.60
2023-01-25T14:51:07.067Z,9.57
2023-01-25T14:52:42.012Z,7.10
2023-01-25T14:54:19.059Z,6.68
2023-01-25T14:55:52.831Z,7.80
2023-01-25T14:57:37.541Z,7.80
2023-01-25T14:59:26.262Z,6.68
2023-01-25T15:01:01.817Z,9.68
2023-01-25T15:02:40.106Z,7.32
2023-01-25T15:04:14.583Z,10.43
2023-01-25T15:05:48.542Z,7.70
2023-01-25T15:07:37.590Z,10.05
2023-01-25T15:09:36.144Z,10.27
2023-01-25T15:11:45.617Z,10.60
2023-01-25T15:13:24.835Z,12.27
2023-01-25T15:15:00.115Z,9.30
2023-01-25T15:16:36.858Z,9.35
2023-01-25T15:18:47.394Z,12.50
2023-01-25T15:20:39.919Z,12.05
2023-01-25T15:22:13.161Z,14.57
2023-01-25T15:23:49.250Z,14.50
2023-01-25T15:25:24.391Z,21.30
2023-01-25T15:26:57.949Z,20.90
2023-01-25T15:28:34.430Z,17.05
2023-01-25T15:30:12.852Z,12.45
2023-01-25T15:31:45.986Z,13.77
2023-01-25T15:33:22.360Z,18.80
2023-01-25T15:34:56.732Z,15.30
2023-01-25T15:36:30.248Z,11.95
2023-01-25T15:38:03.435Z,11.10
2023-01-25T15:39:39.098Z,12.55
2023-01-25T15:41:12.587Z,7.22
2023-01-25T15:42:45.975Z,12.77
2023-01-25T15:44:20.216Z,8.15
2023-01-25T15:45:56.829Z,10.95
2023-01-25T15:47:29.941Z,17.83
2023-01-25T15:49:06.252Z,14.55
2023-01-25T15:50:39.502Z,12.98
2023-01-25T15:52:12.736Z,14.52
2023-01-25T15:53:46.999Z,11.75
2023-01-25T15:55:21.807Z,11.23
2023-01-25T15:56:58.173Z,7.40
2023-01-25T15:58:34.650Z,9.98
2023-01-25T16:00:16.435Z,5.90
2023-01-25T16:01:49.765Z,11.23
2023-01-25T16:03:22.873Z,11.68
2023-01-25T16:04:56.225Z,9.93
2023-01-25T16:06:37.860Z,11.20
2023-01-25T16:08:17.152Z,15.25
2023-01-25T16:09:50.754Z,14.52
2023-01-25T16:11:25.548Z,14.57
2023-01-25T16:12:58.721Z,14.10
2023-01-25T16:14:32.246Z,11.68
2023-01-25T16:16:09.997Z,12.68
2023-01-25T16:17:43.325Z,7.72
2023-01-25T16:19:18.614Z,9.18
2023-01-25T16:20:52.089Z,7.95
2023-01-25T16:22:25.278Z,24.90
2023-01-25T16:23:58.510Z,14.68
2023-01-25T16:25:31.758Z,12.43
2023-01-25T16:27:06.648Z,9.65
2023-01-25T16:28:39.831Z,9.82
2023-01-25T16:30:22.336Z,8.55
2023-01-25T16:31:57.346Z,9.13
2023-01-25T16:33:30.741Z,13.80
2023-01-25T16:35:03.975Z,11.18
2023-01-25T16:36:39.453Z,11.70
2023-01-25T16:38:13.463Z,10.15
2023-01-25T16:39:46.753Z,6.13
2023-01-25T16:41:19.997Z,7.93
2023-01-25T16:42:54.627Z,8.73
2023-01-25T16:44:28.362Z,9.93
2023-01-25T16:46:01.744Z,8.77
2023-01-25T16:47:34.882Z,8.02
2023-01-25T16:49:10.167Z,11.23
2023-01-25T16:50:43.465Z,11.27
2023-01-25T16:52:16.921Z,9.93
2023-01-25T16:53:52.005Z,11.70
2023-01-25T16:55:25.410Z,12.00
2023-01-25T16:56:59.914Z,10.15
2023-01-25T16:58:37.473Z,11.10
2023-01-25T17:00:13.934Z,13.40
2023-01-25T17:01:47.471Z,13.57
2023-01-25T17:03:20.824Z,10.20
2023-01-25T17:04:54.288Z,10.55
2023-01-25T17:06:29.997Z,10.80
2023-01-25T17:08:03.411Z,10.95
2023-01-25T17:09:36.716Z,10.15
2023-01-25T17:11:10.075Z,7.43
2023-01-25T17:12:43.423Z,8.48
2023-01-25T17:14:20.422Z,8.25
2023-01-25T17:15:57.247Z,8.38
2023-01-25T17:17:31.656Z,8.75
2023-01-25T17:19:06.905Z,10.07
2023-01-25T17:20:40.313Z,9.52
2023-01-25T17:22:14.283Z,11.48
2023-01-25T17:23:48.703Z,10.88
2023-01-25T17:25:22.121Z,7.38
2023-01-25T17:26:57.735Z,9.27
2023-01-25T17:28:31.402Z,10.65
2023-01-25T17:30:07.277Z,7.53
2023-01-25T17:31:42.389Z,10.52
2023-01-25T17:33:16.896Z,11.27
2023-01-25T17:34:50.565Z,13.90
2023-01-25T17:36:24.621Z,11.65
2023-01-25T17:37:57.923Z,9.95
2023-01-25T17:39:31.407Z,10.85
2023-01-25T17:41:05.735Z,9.07
2023-01-25T17:42:39.204Z,8.00
2023-01-25T17:44:12.954Z,11.25
2023-01-25T17:45:47.984Z,9.18
2023-01-25T17:47:21.595Z,9.32
2023-01-25T17:48:55.529Z,7.82
2023-01-25T17:50:29.098Z,10.23
2023-01-25T17:52:03.130Z,8.75
2023-01-25T17:53:36.933Z,9.85
2023-01-25T17:55:10.752Z,11.35
2023-01-25T17:56:44.121Z,11.10
2023-01-25T17:58:17.975Z,11.13
2023-01-25T17:59:52.242Z,10.23
2023-01-25T18:01:29.919Z,9.80
2023-01-25T18:03:03.366Z,8.88
2023-01-25T18:04:37.067Z,11.68
2023-01-25T18:06:11.387Z,15.80
2023-01-25T18:07:45.521Z,7.72
2023-01-25T18:09:18.873Z,11.13
2023-01-25T18:10:52.472Z,14.20
2023-01-25T18:12:26.161Z,12.80
2023-01-25T18:14:01.745Z,14.60
2023-01-25T18:15:35.605Z,9.43
2023-01-25T18:17:10.481Z,7.63
2023-01-25T18:18:45.562Z,12.85
2023-01-25T18:20:20.013Z,8.30
2023-01-25T18:21:53.494Z,7.93
2023-01-25T18:23:27.075Z,9.88
2023-01-25T18:25:01.557Z,8.82
2023-01-25T18:26:38.275Z,9.20
2023-01-25T18:28:15.084Z,11.45
2023-01-25T18:29:55.647Z,10.38
2023-01-25T18:31:29.508Z,10.60
2023-01-25T18:33:06.326Z,11.88
2023-01-25T18:34:39.889Z,10.10
2023-01-25T18:36:15.644Z,11.48
2023-01-25T18:37:49.164Z,10.68
2023-01-25T18:39:22.635Z,15.18
2023-01-25T18:40:56.068Z,10.00
2023-01-25T18:42:29.697Z,13.68
2023-01-25T18:44:03.303Z,7.60
2023-01-25T18:45:36.996Z,11.18
2023-01-25T18:47:13.996Z,10.40
2023-01-25T18:48:48.931Z,8.82
2023-01-25T18:50:23.859Z,10.93
2023-01-25T18:52:10.877Z,11.82
2023-01-25T18:53:47.853Z,13.43
2023-01-25T18:55:21.334Z,10.40
2023-01-25T18:56:55.927Z,7.45
2023-01-25T18:58:31.707Z,9.85
2023-01-25T19:00:06.037Z,7.22
2023-01-25T19:01:39.697Z,6.63
2023-01-25T19:03:13.247Z,10.20
2023-01-25T19:04:49.753Z,7.90
2023-01-25T19:06:23.189Z,7.40
2023-01-25T19:07:56.697Z,8.30
2023-01-25T19:09:30.926Z,9.75
2023-01-25T19:11:07.084Z,9.63
2023-01-25T19:12:43.626Z,10.63
2023-01-25T19:14:17.042Z,11.80
2023-01-25T19:15:50.821Z,11.57
2023-01-25T19:17:24.414Z,13.25
2023-01-25T19:18:57.908Z,10.30
2023-01-25T19:20:32.849Z,11.05
2023-01-25T19:22:07.419Z,12.93
2023-01-25T19:23:42.166Z,14.73
2023-01-25T19:25:16.973Z,14.43
2023-01-25T19:26:50.670Z,18.63
2023-01-25T19:28:25.179Z,11.38
2023-01-25T19:29:58.747Z,11.52
2023-01-25T19:31:33.205Z,9.82
2023-01-25T19:33:06.770Z,10.55
2023-01-25T19:34:41.011Z,10.18
2023-01-25T19:36:18.850Z,10.98
2023-01-25T19:37:52.720Z,8.32
2023-01-25T19:39:26.222Z,10.63
2023-01-25T19:41:05.022Z,12.10
2023-01-25T19:42:38.531Z,11.73
2023-01-25T19:44:13.996Z,12.57
2023-01-25T19:45:47.293Z,12.10
2023-01-25T19:47:20.847Z,10.55
2023-01-25T19:48:55.149Z,11.15
2023-01-25T19:50:30.882Z,12.00
2023-01-25T19:52:05.796Z,12.02
2023-01-25T19:53:39.635Z,13.32
2023-01-25T19:55:13.109Z,11.27
2023-01-25T19:56:48.864Z,13.85
2023-01-25T19:58:27.479Z,11.15
2023-01-25T20:00:00.983Z,11.20
2023-01-25T20:01:37.005Z,11.43
2023-01-25T20:03:16.276Z,11.27
2023-01-25T20:04:51.466Z,11.15
2023-01-25T20:06:25.732Z,13.40
2023-01-25T20:08:00.921Z,16.40
2023-01-25T20:09:34.281Z,11.93
2023-01-25T20:11:09.237Z,13.45
2023-01-25T20:12:42.707Z,13.25
2023-01-25T20:14:16.735Z,14.48
2023-01-25T20:15:50.226Z,12.82
2023-01-25T20:17:23.986Z,11.70
2023-01-25T20:18:58.242Z,12.25
2023-01-25T20:20:31.672Z,17.27
2023-01-25T20:22:05.618Z,14.07
2023-01-25T20:23:43.453Z,15.20
2023-01-25T20:25:16.910Z,13.52
2023-01-25T20:26:51.499Z,13.90
2023-01-25T20:28:25.002Z,13.18
2023-01-25T20:29:58.365Z,11.13
2023-01-25T20:31:34.145Z,9.95
2023-01-25T20:33:07.912Z,12.43
2023-01-25T20:34:41.980Z,10.30
2023-01-25T20:36:15.160Z,12.77
2023-01-25T20:37:49.437Z,10.00
2023-01-25T20:39:24.444Z,12.55
2023-01-25T20:41:00.202Z,12.93
2023-01-25T20:42:33.432Z,10.60
2023-01-25T20:44:08.724Z,11.18
2023-01-25T20:45:42.129Z,9.27
2023-01-25T20:47:15.333Z,9.70
2023-01-25T20:48:49.127Z,10.57
2023-01-25T20:50:22.757Z,9.88
2023-01-25T20:51:56.059Z,6.30
2023-01-25T20:53:29.842Z,14.45
2023-01-25T20:55:05.397Z,15.68
2023-01-25T20:56:39.160Z,8.57
2023-01-25T20:58:12.544Z,8.93
2023-01-25T20:59:45.687Z,11.82
2023-01-25T21:01:21.262Z,12.82
2023-01-25T21:02:54.484Z,8.57
2023-01-25T21:04:27.728Z,10.57
2023-01-25T21:06:01.487Z,11.00
2023-01-25T21:07:34.740Z,10.02
2023-01-25T21:09:08.366Z,11.10
2023-01-25T21:10:47.711Z,8.70
2023-01-25T21:12:20.870Z,9.57
2023-01-25T21:13:54.376Z,9.50
2023-01-25T21:15:27.669Z,10.00
2023-01-25T21:17:00.971Z,9.43
2023-01-25T21:18:35.529Z,10.70
2023-01-25T21:20:10.219Z,8.95